Aviation Digital Data Service (ADDS)

Output produced by METARs form (2022 UTC 18 July 2018)
found at http://www.aviationweather.gov/adds/metars/
 
KEAU 181956Z VRB05KT 10SM FEW060 26/12 A3006 RMK AO2 SLP175 T02610117
KRNH 182015Z AUTO 17006KT 10SM CLR 26/12 A3007 RMK AO2 T02600117
KMSP 181953Z 13005KT 10SM FEW060 BKN300 27/15 A3005 RMK AO2 SLP172 T02670150